Canaan, New Hampshire
Current Conditions -  °F | °C
As of 6:40 PM on Wednesday 22 Oct 2014 (Local Time) from KLEB Reporting Station
Light Rain Light Rain  
Wind Chill: 50°   Ceiling: 2900
Heat Index: 50°   Visibility: 8mi
Dew Point: 44°   Wind: 12mph
Humidity: 80%   Direction: 10°N
Pressure: 30.03"   Gusts: NA
Location:  43.65°N, 72.01°W
Report Text: KLEB 222240Z 01010KT 8SM -RA OVC029 10/07 A3003 RMK AO2 RAB2154 P0001 T01000067
Loading
Personal Weather Stations






























Interactive Weather Map
Tropical Storm Tracking
New forecast layout! Learn more

10-Day Weather Forecast

Advertisements
Track Severe Weather on mobile